Tiempo atmosférico en la estación meteorológica de Valladolid, Valladolid (735 m.)



Fecha
DESCASC
Temp. máxima en grados centígrados (hora)
DESCASC
Temp. mínima en grados centígrados (hora)
DESCASC
Temp. media en grados centígrados
DESCASC
Racha de viento máxima en m/sg (hora)
DESCASC
Velocidad máxima media en intervalos de 10 minutos(hora)
DESCASC
Precipitaciones diarias en mm
DESCASC
Precipitaciones de 00:00 a 06:00 en mm
DESCASC
Precipitaciones de 06:00 a 12:00 en mm
DESCASC
Precipitaciones de 12:00 a 18:00 en mm
DESCASC
Precipitaciones de 18:00 a 24:00 en mm
DESCASC
17-10-2019 20.5 (16:50) 11.1 (05:10) 15.8 8.89 (14:40) 4.17 (14:50) 9.8 6.2 0 0.2 3.4
16-10-2019 18.7 (15:30) 7.6 (08:50) 13.2 8.33 (16:20) 4.17 (14:20) 0.2 0 0 0 0.2
15-10-2019 15 (16:20) 4.9 (08:10) 10 10 (00:20) 5.28 (00:40) 0 0 0 0 0
14-10-2019 16.8 (13:20) 7.6 (22:40) 12.2 13.06 (10:30) 6.11 (10:20) 4 0 0 3.2 0.8
13-10-2019 24.5 (17:10) 13.8 (00:00) 19.2 9.72 (18:00) 4.17 (18:00) 0 0 0 0 0
12-10-2019 27.2 (16:40) 16.3 (00:00) 21.8 11.39 (16:00) 4.17 (16:30) 0 0 0 0 0
10-10-2019 23.6 (17:30) 8.4 (00:00) 16 5 (08:10) 1.94 (07:50) 0 0 0 0 0
09-10-2019 22.1 (17:40) 12.2 (00:00) 17.2 6.94 (06:30) 3.33 (06:20) 0 0 0 0 0
08-10-2019 28.9 (17:00) 10.5 (00:00) 19.7 7.5 (16:10) 3.61 (15:20) 0 0 0 0 0
07-10-2019 26.8 (17:50) 10.5 (00:00) 18.6 3.61 (15:20) 1.67 (15:30) 0 0 0 0 0
06-10-2019 24.7 (17:40) 8.6 (00:00) 16.7 5 (00:20) 2.5 (02:00) 0 0 0 0 0
05-10-2019 25.7 (16:40) 10 (08:20) 17.9 6.39 (23:30) 3.33 (23:40) 0 0 0 0 0
04-10-2019 24 (16:20) 9.6 (00:00) 16.8 5.56 (01:00) 2.78 (16:40) 0 0 0 0 0
03-10-2019 25.3 (17:10) 8.6 (00:00) 16.9 6.39 (15:50) 3.33 (14:30) 0 0 0 0 0
02-10-2019 21.9 (17:50) 9.4 (00:00) 15.6 5.56 (01:00) 2.78 (01:10) 0 0 0 0 0
01-10-2019 24.5 (16:20) 13.1 (00:00) 18.8 8.89 (17:30) 4.44 (19:30) 0 0 0 0 0
30-09-2019 28.2 (17:10) 12.2 (00:00) 20.2 6.67 (17:10) 3.06 (17:30) 0 0 0 0 0
29-09-2019 28.2 (17:30) 10.1 (00:00) 19.2 7.78 (18:10) 3.61 (15:10) 0 0 0 0 0
28-09-2019 26.4 (17:10) 10 (00:00) 18.2 4.17 (18:30) 2.22 (16:30) 0 0 0 0 0
27-09-2019 25.8 (17:20) 9.3 (00:00) 17.5 8.33 (16:30) 3.89 (17:10) 0 0 0 0 0
26-09-2019 26.6 (18:00) 10.7 (00:00) 18.7 6.67 (18:30) 3.33 (18:40) 0 0 0 0 0
25-09-2019 21.7 (16:20) 10.1 (00:00) 15.9 7.22 (00:40) 3.33 (00:30) 0 0 0 0 0
24-09-2019 23.3 (18:10) 11.2 (00:00) 17.2 10.56 (16:00) 5.83 (17:00) 0 0 0 0 0
23-09-2019 22.3 (18:20) 9.1 (00:00) 15.7 5.56 (14:40) 3.06 (15:00) 0 0 0 0 0
22-09-2019 20.6 (16:10) 11.7 (00:00) 16.2 9.72 (02:20) 4.44 (02:20) 10.4 10.4 0 0 0
21-09-2019 20 (18:50) 15.7 (00:00) 17.8 11.39 (19:00) 4.17 (19:00) 0.2 0 0 0 0.2
20-09-2019 27.5 (15:10) 14.6 (00:00) 21.1 14.72 (19:10) 5.28 (19:10) 4.8 0 0 0 4.8

Gráficas

Temp. máximas Temp. mínimas Temp. medias Precipitaciones Rachas de viento máximas Velocidades máximas media en intervalos de 10 minutos

Datos horarios

Fecha y hora oficial Temperatura (ºC) Velocidad del viento (km/h) Dirección del viento Racha (km/h) Dirección de racha Precipitación (mm) Presión (hPa) Tendencia (hPa) Humedad (%)
2019-10-19 23:00:00 11.7 9 Sudoeste 22 Oeste 0.6 918.2 -1.1 95
2019-10-19 22:00:00 12.3 8 Sur 24 Sudoeste 3.2 918.4 -0.8 94
2019-10-19 21:00:00 12.5 5 Sur 22 Sur 3.4 918.7 -0.6 95
2019-10-19 20:00:00 13 5 Sur 11 Sudeste 3 919.3 -0.1 93
2019-10-19 19:00:00 13.6 4 Sudoeste 21 Sudoeste 1 919.2 -1 89
2019-10-19 18:00:00 15 10 Sudoeste 28 Sur 0.6 919.3 -2 76
2019-10-19 17:00:00 16.2 8 Sur 29 Oeste 0 919.4 -3 66
2019-10-19 16:00:00 15.4 10 Sur 34 Sudoeste 0 920.2 -3.5 65
2019-10-19 15:00:00 15 9 Sur 30 Sur 0 921.3 -2.8 67
2019-10-19 14:00:00 14.4 9 Sur 29 Sudoeste 0 922.4 -1.9 69
2019-10-19 13:00:00 13.7 12 Sudoeste 27 Sudoeste 0 923.7 -0.9 73
2019-10-19 12:00:00 12.6 9 Sur 23 Sur 0 924.1 -0.7 77
2019-10-19 11:00:00 12.1 7 Sur 22 Sur 0 924.3 -0.7 84
2019-10-19 10:00:00 11 8 Sudoeste 17 Oeste 0 924.6 -0.9 84
2019-10-19 09:00:00 10.7 4 Sudeste 10 Sur 0 924.8 -1.1 88
2019-10-19 08:00:00 10.9 4 Sudeste 13 Sudoeste 0 925 -1.3 85
2019-10-19 07:00:00 11.3 5 Sur 16 Sur 0 925.5 -1.5 87
2019-10-19 06:00:00 11.5 5 Sudoeste 16 Sudoeste 0 925.9 -1.3 85
2019-10-19 05:00:00 11.6 4 Sur 15 Sur 0 926.3 -1.2 86
2019-10-19 04:00:00 11.9 6 Sur 12 Sur 0 927 -1.2 83
2019-10-19 03:00:00 11.8 7 Sur 11 Sur 0 927.2 -1.4 82
2019-10-19 02:00:00 12.3 5 Sur 11 Sudoeste 0 927.5 -1.2 79
2019-10-19 01:00:00 12.6 5 Sudoeste 12 Sur 0 928.2 -0.7 76
2019-10-19 00:00:00 13.1 6 Sudoeste 15 Sudoeste 0 928.6 -0.6 72
2019-10-18 23:00:00 13.2 7 Sudoeste 15 Sudoeste 0 928.7 -0.4 72
2019-10-18 22:00:00 13.5 8 Sudoeste 15 Oeste 0 928.9 -0.2 70
2019-10-18 21:00:00 13.8 7 Sudoeste 19 Oeste 0 929.2 -0.2 67
2019-10-18 20:00:00 14.5 7 Oeste 14 Oeste 0 929.1 -0.8 67
2019-10-18 19:00:00 15.1 8 Oeste 19 Sudoeste 0 929.1 -1.2 66
2019-10-18 18:00:00 15.9 8 Oeste 19 Oeste 0 929.4 -1.4 62
2019-10-18 17:00:00 15.6 11 Oeste 28 Oeste 0 929.9 -1.6 62
2019-10-18 16:00:00 16.2 12 Oeste 33 Oeste 0 930.3 -1.6 62
2019-10-18 15:00:00 16 13 Oeste 28 Oeste 0 930.8 -1.2 64
2019-10-18 14:00:00 15.4 11 Oeste 27 Oeste 0 931.5 -0.7 67
2019-10-18 13:00:00 14.7 10 Sudoeste 23 Oeste 0 931.9 0 68
2019-10-18 12:00:00 13.7 10 Oeste 22 Sudoeste 0 932 0.4 76
2019-10-18 11:00:00 13 9 Sudoeste 24 Oeste 0 932.2 1 85
2019-10-18 10:00:00 12.8 11 Oeste 22 Oeste 0 931.9 1 87
2019-10-18 09:00:00 13 5 Oeste 24 Oeste 0 931.6 1 90
2019-10-18 08:00:00 13.7 4 Oeste 21 Oeste 0 931.2 0.8 90
2019-10-18 07:00:00 14 7 Oeste 19 Noroeste 0 930.9 0.2 90
2019-10-18 06:00:00 14.4 7 Oeste 18 Oeste 0 930.6 -0.1 93
2019-10-18 05:00:00 14.6 9 Sudoeste 20 Oeste 0.2 930.4 -0.3 95
2019-10-18 04:00:00 14.7 8 Sudoeste 18 Sudoeste 1.4 930.7 -0.5 97
2019-10-18 03:00:00 14.7 10 Oeste 20 Oeste 1.4 930.7 -0.8 96
2019-10-18 02:00:00 14.9 5 Sudoeste 18 Oeste 2.8 930.7 -1 96
2019-10-18 01:00:00 14.8 7 Sudoeste 19 Sudoeste 0.2 931.2 -0.3 96
2019-10-18 00:00:00 14.7 8 Sudoeste 25 Sudoeste 0.8 931.5 -0.5 95
2019-10-17 23:00:00 14.8 5 Sur 25 Sudoeste 0.6 931.7 0.1 95
2019-10-17 22:00:00 15 7 Sur 14 Sur 0.2 931.5 0.4 94
2019-10-17 21:00:00 15.3 6 Sudoeste 14 Oeste 0 932 1.3 91
2019-10-17 20:00:00 15.2 7 Oeste 25 Oeste 1.4 931.6 0.6 93
2019-10-17 19:00:00 16.9 8 Oeste 23 Sudoeste 0.4 931.1 -0.2 85
2019-10-17 18:00:00 19.4 12 Sudoeste 32 Oeste 0 930.7 -1.1 65
2019-10-17 17:00:00 20.3 12 Sudoeste 29 Oeste 0 931 -1 60
2019-10-17 16:00:00 19.8 12 Oeste 28 Sudoeste 0 931.3 -1.3 65
2019-10-17 15:00:00 17.9 11 Oeste 32 Sudoeste 0 931.8 -0.6 74
2019-10-17 14:00:00 17.8 10 Sudoeste 27 Oeste 0 932 -0.4 73
2019-10-17 13:00:00 15.7 6 Sudoeste 20 Sudoeste 0.2 932.6 0.7 89
2019-10-17 12:00:00 14.3 5 Sudoeste 15 Sur 0 932.4 1.2 91
2019-10-17 11:00:00 13.1 6 Sur 14 Sudoeste 0 932.4 1.5 92
2019-10-17 10:00:00 12.2 4 Sur 18 Sur 0 931.9 1.1 94
2019-10-17 09:00:00 11.8 9 Sur 19 Sur 0 931.2 0.6 95
2019-10-17 08:00:00 11.4 14 Sur 21 Sur 0 930.9 0 95
2019-10-17 07:00:00 11.1 10 Sur 25 Sur 0 930.8 -0.6 95
2019-10-17 06:00:00 11.1 10 Sur 20 Sur 0.2 930.6 -1.2 95
2019-10-17 05:00:00 11.2 8 Sur 19 Sur 0.6 930.9 -0.9 94
2019-10-17 04:00:00 11.3 5 Sur 15 Sudoeste 3.4 931.4 -0.9 94
2019-10-17 03:00:00 11.8 6 Sur 18 Sudoeste 1.4 931.8 -0.8 89
2019-10-17 02:00:00 12.3 6 Sudoeste 16 Sur 0.4 931.8 -0.8 82
2019-10-17 01:00:00 12.9 5 Sudoeste 22 Sudoeste 0.2 932.3 0.1 79
2019-10-17 00:00:00 13.2 8 Sudoeste 29 Sudoeste 0.2 932.6 0.4 79
2019-10-16 23:00:00 14.7 6 Sudoeste 22 Sudoeste 0 932.6 0.9 66
2019-10-16 22:00:00 15.3 8 Sudoeste 23 Sudoeste 0 932.2 0.8 62
2019-10-16 21:00:00 16 9 Oeste 24 Oeste 0 932.2 1.1 60
2019-10-16 20:00:00 16.7 8 Sudoeste 23 Oeste 0 931.7 0.1 56
2019-10-16 19:00:00 17.5 6 Sudoeste 21 Oeste 0 931.4 -0.6 50
2019-10-16 18:00:00 18.2 6 Sudoeste 21 Sudoeste 0 931.1 -1.6 44
2019-10-16 17:00:00 18.5 9 Oeste 30 Sudoeste 0 931.6 -2.1 43
2019-10-16 16:00:00 18.2 12 Sudoeste 27 Sudoeste 0 932 -1.9 46
2019-10-16 15:00:00 18 11 Sudoeste 28 Sudoeste 0 932.7 -1.6 46
2019-10-16 14:00:00 16.8 13 Oeste 28 Oeste 0 933.7 -0.7 50
2019-10-16 13:00:00 15 10 Sur 28 Sudoeste 0 933.9 -0.6 55
2019-10-16 12:00:00 13.8 8 Sudoeste 25 Sudoeste 0 934.3 -0.2 63
2019-10-16 11:00:00 11.7 8 Sudoeste 17 Oeste 0 934.4 0.3 72
2019-10-16 10:00:00 9 8 Sudeste 16 Sudeste 0 934.5 0.7 82
2019-10-16 09:00:00 7.7 5 Sur 13 Sur 0 934.5 0.7 88
2019-10-16 08:00:00 8.2 5 Sur 15 Sur 0 934.1 0 86
2019-10-16 07:00:00 9.5 5 Sur 12 Sur 0 933.8 -0.6 82
2019-10-16 06:00:00 10.2 6 Sudoeste 14 Sudoeste 0 933.8 -0.9 80
2019-10-16 05:00:00 10.3 8 Sudoeste 18 Sudoeste 0 934.1 -0.9 80
2019-10-16 04:00:00 10.2 5 Sudoeste 13 Sudoeste 0 934.4 -0.7 79
2019-10-16 03:00:00 10.8 6 Sudoeste 14 Sudoeste 0 934.7 -0.3 76
2019-10-16 02:00:00 11.2 5 Sur 13 Sudoeste 0 935 0 72
2019-10-16 01:00:00 11.4 7 Sudoeste 13 Sudoeste 0 935.1 0.2 71
2019-10-16 00:00:00 11.8 6 Sudoeste 13 Sudoeste 0 935 0.1 68
2019-10-15 23:00:00 12.2 5 Sudoeste 12 Sudoeste 0 935 0.3 65
2019-10-15 22:00:00 12.5 5 Sudoeste 10 Sudoeste 0 934.9 0.4 61
2019-10-15 21:00:00 13 3 Sudoeste 12 Sudoeste 0 934.9 0.6 61
2019-10-15 20:00:00 13.2 5 Oeste 22 Oeste 0 934.7 0.1 58
2019-10-15 19:00:00 13.6 9 Sudoeste 27 Oeste 0 934.5 -0.2 53
2019-10-15 18:00:00 14.3 11 Sudoeste 33 Oeste 0 934.3 -0.6 48
2019-10-15 17:00:00 14.4 14 Oeste 26 Oeste 0 934.6 -0.7 51
2019-10-15 16:00:00 14.9 13 Oeste 30 Oeste 0 934.7 -0.9 51
2019-10-15 15:00:00 14 12 Oeste 25 Sudoeste 0 934.9 -0.9 53
2019-10-15 14:00:00 13.2 13 Sudoeste 26 Sur 0 935.3 -0.7 58
2019-10-15 13:00:00 11.8 12 Sudoeste 24 Oeste 0 935.6 0.4 67
2019-10-15 12:00:00 9.9 8 Sudoeste 21 Oeste 0 935.8 1.3 79
2019-10-15 11:00:00 8.3 4 Sur 15 Sudoeste 0 936 1.6 82
2019-10-15 10:00:00 6.7 5 Sur 16 Sur 0 935.2 1.1 87
2019-10-15 09:00:00 5.1 12 Sudoeste 22 Sudoeste 0 934.5 0.8 92
2019-10-15 08:00:00 5 5 Sur 15 Sur 0 934.4 1.2 91
2019-10-15 07:00:00 5.4 8 Sudoeste 14 Sudoeste 0 934.1 0.8 90
2019-10-15 06:00:00 5.6 7 Sur 14 Sudoeste 0 933.7 0.4 88
2019-10-15 05:00:00 6.1 4 Sur 18 Oeste 0 933.2 0.5 86
2019-10-15 04:00:00 6.8 11 Sudoeste 29 Oeste 0 933.3 1.1 82
2019-10-15 03:00:00 6.6 13 Oeste 31 Oeste 0 933.3 1.6 83
2019-10-15 02:00:00 6.9 15 Oeste 36 Sudoeste 0 932.7 1.5 82
2019-10-15 01:00:00 7.5 16 Oeste 36 Oeste 0 932.2 1.9 80
2019-10-15 00:00:00 7.6 14 Oeste 36 Sudoeste 0 931.7 2 81
2019-10-14 23:00:00 7.6 13 Oeste 39 Sudoeste 0 931.2 1.9 81
2019-10-14 22:00:00 8.1 17 Oeste 46 Oeste 0 930.3 2 78
2019-10-14 21:00:00 8.6 19 Oeste 38 Oeste 0.6 929.7 1.9 83
2019-10-14 20:00:00 9.9 10 Oeste 30 Oeste 0 929.3 1.8 80
2019-10-14 19:00:00 10.5 12 Oeste 29 Oeste 0.2 928.3 1.2 78
2019-10-14 18:00:00 10.4 9 Sudoeste 28 Sudoeste 0.6 927.8 1.1 88
2019-10-14 17:00:00 10.7 12 Sudoeste 27 Sudoeste 1.4 927.5 0.9 83
2019-10-14 16:00:00 12.2 11 Sudoeste 28 Sudoeste 1.2 927.1 0.1 85
2019-10-14 15:00:00 13.1 12 Sudoeste 40 Oeste 0 926.7 -0.3 79
2019-10-14 14:00:00 16 14 Sudoeste 35 Sudoeste 0 926.6 0.1 52
2019-10-14 13:00:00 16.3 14 Sudoeste 38 Oeste 0 927 2.3 52
2019-10-14 12:00:00 13.8 17 Oeste 42 Sudoeste 0 927 3 64
2019-10-14 11:00:00 12.2 13 Oeste 47 Oeste 0 926.5 2.6 74
2019-10-14 10:00:00 15.4 16 Sudoeste 36 Sudoeste 0 924.7 1.3 67
2019-10-14 09:00:00 15 13 Sudoeste 34 Sudoeste 0 924 0.6 71
2019-10-14 08:00:00 15 5 Sudoeste 15 Sudoeste 0 923.9 0.2 63
2019-10-14 07:00:00 15.6 5 Sudoeste 9 Sudoeste 0 923.4 -1 61
2019-10-14 06:00:00 15.5 3 Sudeste 9 Sudoeste 0 923.4 -2.1 62
2019-10-14 05:00:00 14.9 4 Sudoeste 9 Sur 0 923.7 -2.5 63
2019-10-14 04:00:00 14.9 2 Noroeste 10 Sudoeste 0 924.4 -2.6 61
2019-10-14 03:00:00 15.1 3 Sudeste 10 Sudoeste 0 925.5 -2.1 59
2019-10-14 02:00:00 15.2 0 Calma 12 Sur 0 926.2 -1.9 59
2019-10-14 01:00:00 15.5 4 Sur 10 Sur 0 927 -1.2 55
2019-10-14 00:00:00 15.7 3 Sudoeste 9 Sur 0 927.6 -0.7 55
2019-10-13 23:00:00 16.6 3 Sudoeste 10 Sudoeste 0 928.1 0.3 51
2019-10-13 22:00:00 17.5 3 Sur 10 Sur 0 928.2 0.7 50
2019-10-13 21:00:00 18.9 3 Sudoeste 16 Sudoeste 0 928.3 0.4 45
2019-10-13 20:00:00 20.5 7 Sudoeste 26 Sudoeste 0 927.8 -0.2 40
2019-10-13 19:00:00 22.1 7 Sudoeste 27 Sudoeste 0 927.5 -1 34
2019-10-13 18:00:00 23.5 15 Sudoeste 35 Sudoeste 0 927.9 -1.1 30
2019-10-13 17:00:00 24.2 9 Sudoeste 27 Sudoeste 0 928 -1.7 31
2019-10-13 16:00:00 23.4 14 Sudoeste 33 Sudoeste 0 928.5 -1.7 34
2019-10-13 15:00:00 23 9 Sudoeste 27 Oeste 0 929 -1.5 37
2019-10-13 14:00:00 21.6 7 Sudoeste 23 Sudoeste 0 929.7 -0.6 43
2019-10-13 13:00:00 19.5 9 Sudoeste 24 Oeste 0 930.2 0 54
2019-10-13 12:00:00 18.1 11 Oeste 30 Sudoeste 0 930.5 0.8 60
2019-10-13 11:00:00 16.7 10 Sudoeste 21 Oeste 0 930.3 1.1 66
2019-10-13 10:00:00 14.8 6 Sudoeste 17 Sudoeste 0 930.2 1.4 79
2019-10-13 09:00:00 13.8 5 Sudoeste 15 Sudoeste 0 929.7 1.2 84
2019-10-13 08:00:00 14.6 6 Sudoeste 24 Sudoeste 0 929.2 0.9 81
2019-10-13 07:00:00 14.7 6 Oeste 20 Sudoeste 0 928.8 0.2 80
2019-10-13 06:00:00 15.7 7 Sudoeste 24 Sudoeste 0 928.5 -0.3 71
2019-10-13 05:00:00 16.3 11 Sudoeste 21 Sudoeste 0 928.3 -0.7 58
2019-10-13 04:00:00 16.5 6 Oeste 18 Sur 0 928.6 -0.7 56
2019-10-13 03:00:00 17.2 7 Sur 15 Sur 0 928.8 -0.4 53
2019-10-13 02:00:00 17.9 4 Sur 18 Sur 0 929 0 51
2019-10-13 01:00:00 19.3 8 Sur 24 Sur 0 929.3 0.8 48
2019-10-13 00:00:00 20.2 13 Sur 31 Sudeste 0 929.2 0.6 46
2019-10-12 23:00:00 20.3 7 Sudeste 20 Sudeste 0 929 0.7 44
2019-10-12 22:00:00 21.2 6 Sudeste 19 Sur 0 928.5 0.5 40
2019-10-12 21:00:00 22.7 6 Sudeste 25 Sur 0 928.6 0.8 36
2019-10-12 20:00:00 24.2 8 Sur 29 Sur 0 928.3 0 30
2019-10-12 19:00:00 25.8 9 Sudoeste 32 Sur 0 928 -0.8 28
2019-10-12 18:00:00 26.9 11 Sudoeste 31 Sudoeste 0 927.8 -1.7 26
2019-10-12 17:00:00 27 12 Sur 34 Oeste 0 928.3 -1.9 29
2019-10-12 16:00:00 26.1 12 Sudoeste 41 Sur 0 928.8 -2.3 29
2019-10-12 15:00:00 25.7 12 Sur 29 Sur 0 929.5 -2 30
2019-10-12 14:00:00 25.1 7 Sudoeste 15 Sudoeste 0 930.2 -1.2 39
2019-10-12 13:00:00 23.9 4 Sudeste 10 Sudeste 0 931.1 -0.1 42
2019-10-12 12:00:00 21.9 4 Sur 8 Sur 0 931.5 0.6 49
2019-10-12 11:00:00 18.9 4 Sur 9 Sur 0 931.4 0.7 62
2019-10-12 10:00:00 16.9 2 Oeste 7 Sudeste 0 931.2 0.5 76
2019-10-12 09:00:00 16.5 2 Sur 5 Sur 0 930.9 0.2 72
2019-10-12 08:00:00 16.7 2 Noroeste 8 Sudoeste 0 930.7 0.1 71
2019-10-12 07:00:00 17.1 4 Sur 15 Sudeste 0 930.7 -0.3 69
2019-10-12 06:00:00 17.3 5 Sur 13 Sur 0 930.7 -0.7 69
2019-10-12 05:00:00 17.3 5 Sur 11 Sur 0 930.6 -1.1 69
2019-10-12 04:00:00 17.8 5 Sur 11 Sur 0 931 -1.2 66
2019-10-12 03:00:00 17 5 Sudoeste 9 Sur 0 931.4 -0.9 71
2019-10-12 02:00:00 16.6 3 Sur 7 Sudeste 0 931.7 -0.5 77
2019-10-12 01:00:00 17.4 5 Sur 8 Sur 0 932.2 0.4 75
2019-10-12 00:00:00 17.8 3 Sur 8 Sur 0 932.3 0.7 76
2019-10-11 23:00:00 18 3 Sur 6 Sur 0 932.2 0.8 78
2019-10-11 22:00:00 18.7 0 Calma 6 Oeste 0 931.8 0.9 80
2019-10-11 21:00:00 19.6 3 Noroeste 33 Oeste 0.8 931.6 0.5 74
2019-10-11 20:00:00 24.9 10 Sudoeste 39 Sudoeste 0 931.4 -0.1 42
2019-10-11 19:00:00 26.3 4 Oeste 14 Oeste 0 930.9 -1.3 35
2019-10-11 18:00:00 27.4 8 Sudoeste 23 Sudoeste 0 931.1 -2 32
2019-10-11 17:00:00 28 9 Sudoeste 22 Sudoeste 0 931.5 -2.6 30
2019-10-11 16:00:00 28.4 9 Oeste 18 Oeste 0 932.2 -2.8 29
2019-10-11 15:00:00 27.2 4 Sudoeste 14 Noroeste 0 933.1 -2.3 30
2019-10-11 14:00:00 25.1 5 Sur 10 Sur 0 934.1 -1.6 33
2019-10-11 13:00:00 21.4 4 Este 9 Nordeste 0 935 -0.4 43
2019-10-11 12:00:00 17.1 3 Norte 6 Nordeste 0 935.4 0.6 55
2019-10-11 11:00:00 14.1 2 Nordeste 5 Norte 0 935.7 1 62
2019-10-11 10:00:00 11.1 3 Norte 6 Norte 0 935.4 1 69
2019-10-11 09:00:00 9.3 3 Norte 6 Norte 0 934.8 0.4 74
2019-10-11 08:00:00 9.2 2 Norte 6 Norte 0 934.7 0.3 73
2019-10-11 07:00:00 9.6 3 Nordeste 6 Nordeste 0 934.4 -0.3 71
2019-10-11 06:00:00 9.9 3 Noroeste 8 Norte 0 934.4 -0.5 70
2019-10-11 05:00:00 10.5 4 Noroeste 7 Norte 0 934.4 -0.5 66
2019-10-11 04:00:00 11.3 2 Nordeste 9 Norte 0 934.7 -0.4 62
2019-10-11 03:00:00 12.3 4 Norte 7 Norte 0 934.9 -0.2 58
2019-10-11 02:00:00 13 3 Norte 5 Norte 0 934.9 -0.2 53
2019-10-11 01:00:00 13.8 2 Norte 6 Norte 0 935.1 0.5 50
2019-10-11 00:00:00 15 2 Noroeste 5 Noroeste 0 935.1 0.8 47
2019-10-10 23:00:00 16 3 Norte 8 Oeste 0 935.1 1 49
2019-10-10 22:00:00 17 3 Noroeste 7 Oeste 0 934.6 0.5 46
2019-10-10 21:00:00 18.4 5 Oeste 7 Noroeste 0 934.3 0.2 43
2019-10-10 20:00:00 20.3 4 Noroeste 6 Norte 0 934.1 -0.2 40
2019-10-10 19:00:00 21.9 3 Norte 10 Norte 0 934.1 -0.7 36
2019-10-10 18:00:00 23.1 4 Nordeste 15 Norte 0 934.1 -1.2 33
2019-10-10 17:00:00 23.1 4 Norte 13 Norte 0 934.3 -1.8 35
2019-10-10 16:00:00 22.8 5 Nordeste 17 Noroeste 0 934.8 -1.9 37
2019-10-10 15:00:00 21.9 5 Norte 15 Norte 0 935.3 -1.9 40
2019-10-10 14:00:00 20.5 5 Nordeste 14 Nordeste 0 936.1 -1.3 44
2019-10-10 13:00:00 18.3 4 Nordeste 16 Nordeste 0 936.7 -0.3 51
2019-10-10 12:00:00 15 5 Norte 14 Norte 0 937.2 0.6 60
2019-10-10 11:00:00 12.4 5 Nordeste 14 Norte 0 937.4 0.9 68
2019-10-10 10:00:00 10.2 4 Norte 14 Norte 0 937 0.9 76
2019-10-10 09:00:00 8.4 4 Norte 18 Norte 0 936.6 0.5 83
2019-10-10 08:00:00 8.5 6 Norte 17 Norte 0 936.5 0.5 83
2019-10-10 07:00:00 8.6 6 Norte 15 Norte 0 936.1 0 82
2019-10-10 06:00:00 9.1 5 Norte 17 Norte 0 936.1 -0.3 80
2019-10-10 05:00:00 9.3 4 Noroeste 12 Norte 0 936 -0.4 78
2019-10-10 04:00:00 10 5 Norte 17 Nordeste 0 936.1 -0.3 75
2019-10-10 03:00:00 10.5 5 Norte 16 Norte 0 936.4 0 72
2019-10-10 02:00:00 11 5 Norte 15 Norte 0 936.4 0.3 70
2019-10-10 01:00:00 11.8 3 Noroeste 12 Nordeste 0 936.4 0.8 67
2019-10-10 00:00:00 12.6 4 Norte 20 Nordeste 0 936.4 1.3 65
2019-10-09 23:00:00 14.5 5 Nordeste 23 Este 0 936.1 1.8 59
2019-10-09 22:00:00 16.3 4 Nordeste 17 Norte 0 935.6 1.7 51
2019-10-09 21:00:00 17.8 4 Norte 18 Nordeste 0 935.1 1.4 46
2019-10-09 20:00:00 19.2 4 Norte 14 Norte 0 934.3 0.2 43
2019-10-09 19:00:00 20.4 4 Norte 14 Nordeste 0 933.9 -0.6 40
2019-10-09 18:00:00 21.8 5 Nordeste 15 Nordeste 0 933.7 -0.9 37
2019-10-09 17:00:00 21.8 4 Norte 17 Nordeste 0 934.1 -1.1 39
2019-10-09 16:00:00 21.8 6 Nordeste 15 Este 0 934.5 -1.2 41
2019-10-09 15:00:00 20.9 3 Norte 17 Este 0 934.6 -1.3 45
2019-10-09 14:00:00 20 5 Noroeste 13 Norte 0 935.2 -0.6 51
2019-10-09 13:00:00 18.2 4 Noroeste 12 Oeste 0 935.7 0 60
2019-10-09 12:00:00 16.8 5 Nordeste 12 Noroeste 0 935.9 0.8 71
2019-10-09 11:00:00 15.9 3 Nordeste 10 Noroeste 0 935.8 1.2 74
2019-10-09 10:00:00 13.6 4 Noroeste 11 Noroeste 0 935.7 1.3 80
2019-10-09 09:00:00 12.4 5 Noroeste 17 Noroeste 0 935.1 1.1 83
2019-10-09 08:00:00 12.7 8 Noroeste 14 Noroeste 0 934.6 1.1 81
2019-10-09 07:00:00 14 3 Norte 25 Norte 0 934.4 1.3 78
2019-10-09 06:00:00 14.1 9 Noroeste 19 Noroeste 0 934 0.3 82
2019-10-09 05:00:00 13.4 4 Oeste 7 Noroeste 0 933.5 -0.1 84
2019-10-09 04:00:00 13.6 4 Noroeste 9 Norte 0 933.1 -0.2 83
2019-10-09 03:00:00 14.6 3 Norte 9 Noroeste 0 933.7 0.5 81
2019-10-09 02:00:00 15.7 8 Noroeste 15 Noroeste 0 933.6 0.6 77
2019-10-09 01:00:00 17.6 6 Noroeste 14 Noroeste 0 933.3 0.6 68
2019-10-09 00:00:00 19.1 5 Noroeste 13 Oeste 0 933.2 0.7 60
2019-10-08 23:00:00 20.4 5 Noroeste 22 Sudoeste 0 933 0.8 56
2019-10-08 22:00:00 21.9 8 Oeste 22 Oeste 0 932.7 0.9 51
2019-10-08 21:00:00 23.2 9 Oeste 22 Oeste 0 932.5 0.6 46
2019-10-08 20:00:00 24.8 8 Oeste 20 Oeste 0 932.2 0 39
2019-10-08 19:00:00 26.9 12 Oeste 24 Oeste 0 931.8 -1 35
2019-10-08 18:00:00 28.4 8 Oeste 26 Sudoeste 0 931.9 -1.3 33
2019-10-08 17:00:00 28.8 9 Oeste 27 Sudoeste 0 932.2 -1.6 32
2019-10-08 16:00:00 28.2 10 Oeste 24 Oeste 0 932.8 -1.7 30
2019-10-08 15:00:00 27.4 10 Oeste 22 Oeste 0 933.2 -2 30
2019-10-08 14:00:00 25.4 7 Sudoeste 16 Sudoeste 0 933.8 -1.5 32
2019-10-08 13:00:00 22.3 5 Sur 11 Sudeste 0 934.5 -0.8 36
2019-10-08 12:00:00 19.1 6 Sudeste 12 Sudeste 0 935.2 0.1 46
2019-10-08 11:00:00 16.8 4 Sudeste 8 Sudeste 0 935.3 0.5 49
2019-10-08 10:00:00 12.8 0 Calma 4 Norte 0 935.3 0.5 63
2019-10-08 09:00:00 10.6 2 Oeste 4 Este 0 935.1 0.3 69
2019-10-08 08:00:00 10.6 2 Nordeste 4 Este 0 934.8 -0.1 68
2019-10-08 07:00:00 11 0 Calma 4 Norte 0 934.8 -0.2 67
2019-10-08 06:00:00 11.8 0 Calma 4 Norte 0 934.8 -0.8 64
2019-10-08 05:00:00 12.7 2 Nordeste 6 Noroeste 0 934.9 -0.6 61
2019-10-08 04:00:00 13.2 3 Norte 5 Noroeste 0 935 -0.7 60
2019-10-08 03:00:00 14 3 Norte 5 Noroeste 0 935.6 -0.3 59
2019-10-08 02:00:00 15.2 3 Norte 6 Sudeste 0 935.5 -0.3 55
2019-10-08 01:00:00 15.8 4 Este 6 Oeste 0 935.7 0.1 53
2019-10-08 00:00:00 17.2 2 Sudeste 6 Sudeste 0 935.9 0.7 49
2019-10-07 23:00:00 18.1 4 Noroeste 7 Noroeste 0 935.8 1 43
2019-10-07 22:00:00 19.3 3 Noroeste 5 Noroeste 0 935.6 0.7 39
2019-10-07 21:00:00 20.8 0 Calma 5 Noroeste 0 935.2 0.3 38
2019-10-07 20:00:00 22.8 3 Nordeste 5 Este 0 934.8 -0.5 34
2019-10-07 19:00:00 25 4 Este 8 Este 0 934.9 -0.5 27
2019-10-07 18:00:00 26.6 4 Sudoeste 10 Este 0 934.9 -0.8 24
2019-10-07 17:00:00 26.4 4 Sudeste 11 Sudeste 0 935.3 -1.3 27
2019-10-07 16:00:00 25.1 5 Sur 13 Sudeste 0 935.4 -1.7 30
2019-10-07 15:00:00 24.2 3 Sur 9 Sudoeste 0 935.7 -1.6 33
2019-10-07 14:00:00 21.8 4 Oeste 9 Sudoeste 0 936.6 -0.9 38
2019-10-07 13:00:00 20.6 3 Oeste 10 Sudeste 0 937.1 -0.1 45
2019-10-07 12:00:00 18 3 Sudeste 8 Sur 0 937.3 0.5 52
2019-10-07 11:00:00 15 3 Nordeste 7 Norte 0 937.5 0.8 68
2019-10-07 10:00:00 12.4 4 Norte 8 Norte 0 937.2 1 82
2019-10-07 09:00:00 10.7 4 Norte 11 Norte 0 936.8 0.6 90
2019-10-07 08:00:00 10.6 3 Noroeste 7 Norte 0 936.7 0.7 91
2019-10-07 07:00:00 10.5 2 Noroeste 5 Noroeste 0 936.2 -0.2 91
2019-10-07 06:00:00 10.9 3 Noroeste 7 Noroeste 0 936.2 -0.5 90
2019-10-07 05:00:00 11.3 2 Norte 8 Norte 0 936 -0.6 88
2019-10-07 04:00:00 11.9 3 Norte 9 Norte 0 936.4 -0.1 86
2019-10-07 03:00:00 12.5 3 Norte 11 Nordeste 0 936.7 0 84
2019-10-07 02:00:00 13.1 3 Norte 9 Noroeste 0 936.6 0.2 79
2019-10-07 01:00:00 14.1 2 Noroeste 10 Norte 0 936.5 0.6 71
2019-10-07 00:00:00 15.2 3 Norte 13 Este 0 936.7 1.2 61
2019-10-06 23:00:00 16.6 6 Noroeste 8 Oeste 0 936.4 1 47
2019-10-06 22:00:00 18 4 Oeste 8 Oeste 0 935.9 0.6 42
2019-10-06 21:00:00 19 4 Noroeste 6 Noroeste 0 935.5 0.5 39
2019-10-06 20:00:00 20.9 4 Norte 12 Noroeste 0 935.4 0.3 35
2019-10-06 19:00:00 22.5 6 Noroeste 17 Noroeste 0 935.3 -0.3 30
2019-10-06 18:00:00 23.9 8 Noroeste 16 Norte 0 935 -1.2 29
2019-10-06 17:00:00 24 3 Oeste 15 Sudoeste 0 935.1 -1.5 35
2019-10-06 16:00:00 22.9 5 Sur 10 Sur 0 935.6 -1.4 40
2019-10-06 15:00:00 21.5 4 Noroeste 9 Noroeste 0 936.2 -1.2 44
2019-10-06 14:00:00 20.1 3 Sur 12 Este 0 936.6 -0.8 49
2019-10-06 13:00:00 17.7 6 Este 12 Este 0 937 0.2 56
2019-10-06 12:00:00 14.7 3 Norte 7 Nordeste 0 937.4 1.5 66
2019-10-06 11:00:00 12.8 4 Nordeste 8 Nordeste 0 937.4 1.8 70
2019-10-06 10:00:00 10.6 2 Norte 5 Norte 0 936.8 1.8 81
2019-10-06 09:00:00 9 2 Norte 9 Este 0 935.9 1.3 89
2019-10-06 08:00:00 8.7 2 Norte 5 Norte 0 935.6 1.1 84
2019-10-06 07:00:00 9.2 2 Norte 4 Norte 0 935 0.6 79
2019-10-06 06:00:00 10.2 3 Noroeste 9 Sur 0 934.6 0 75
2019-10-06 05:00:00 11.3 2 Sur 8 Sur 0 934.5 0.3 72
2019-10-06 04:00:00 12 3 Sudeste 9 Sur 0 934.4 0.6 69
2019-10-06 03:00:00 13.5 4 Sudoeste 14 Sudoeste 0 934.6 0.3 63
2019-10-06 02:00:00 14.6 9 Sur 16 Sudoeste 0 934.2 0.5 60
2019-10-06 01:00:00 15.8 5 Sur 18 Oeste 0 933.8 0.4 57
2019-10-06 00:00:00 16.8 5 Noroeste 23 Oeste 0 934.3 1.4 53
2019-10-05 23:00:00 17.8 8 Oeste 15 Oeste 0 933.7 1.2 46
2019-10-05 22:00:00 18.1 5 Oeste 10 Oeste 0 933.4 1.2 50
2019-10-05 21:00:00 19.6 5 Oeste 10 Oeste 0 932.9 1 45
2019-10-05 20:00:00 22 8 Oeste 14 Oeste 0 932.5 0.7 38
2019-10-05 19:00:00 23.4 5 Oeste 19 Sudoeste 0 932.2 0 39
2019-10-05 18:00:00 25.2 9 Oeste 20 Oeste 0 931.9 -0.6 35
2019-10-05 17:00:00 25.7 7 Oeste 21 Oeste 0 931.8 -1.4 36
2019-10-05 16:00:00 25.2 9 Sudoeste 20 Oeste 0 932.2 -1.4 38
2019-10-05 15:00:00 23.6 5 Oeste 14 Sudeste 0 932.5 -1.4 46
2019-10-05 14:00:00 21.8 4 Sur 7 Nordeste 0 933.2 -0.6 53
2019-10-05 13:00:00 18.7 3 Norte 7 Norte 0 933.6 0 65
2019-10-05 12:00:00 16 3 Nordeste 7 Noroeste 0 933.9 0.9 74
2019-10-05 11:00:00 12.6 3 Norte 6 Noroeste 0 933.8 1.3 91
2019-10-05 10:00:00 10.5 3 Noroeste 6 Norte 0 933.6 1.3 97
2019-10-05 09:00:00 10.2 3 Noroeste 7 Norte 0 933 0.4 96
2019-10-05 08:00:00 10.2 0 Calma 3 Noroeste 0 932.5 -0.1 94
2019-10-05 07:00:00 10.7 3 Oeste 4 Norte 0 932.3 -0.3 94
2019-10-05 06:00:00 11 2 Noroeste 8 Nordeste 0 932.6 -0.3 92
2019-10-05 05:00:00 11.7 3 Norte 8 Norte 0 932.6 -0.2 90
2019-10-05 04:00:00 12.5 3 Noroeste 12 Norte 0 932.6 -0.4 88
2019-10-05 03:00:00 13.3 4 Norte 9 Norte 0 932.9 0.1 81
2019-10-05 02:00:00 14.2 3 Noroeste 5 Nordeste 0 932.8 0.1 76
2019-10-05 01:00:00 15.4 3 Nordeste 8 Nordeste 0 933 0.4 73
2019-10-05 00:00:00 16.3 2 Norte 5 Oeste 0 932.8 0.6 71
2019-10-04 23:00:00 17 2 Sudeste 5 Este 0 932.7 0.7 69
2019-10-04 22:00:00 17.9 4 Oeste 6 Oeste 0 932.6 0.8 64
2019-10-04 21:00:00 19.4 2 Oeste 4 Sudoeste 0 932.2 0.6 59
2019-10-04 20:00:00 21.2 2 Oeste 10 Sudoeste 0 932 0.2 54
2019-10-04 19:00:00 22.5 6 Oeste 16 Oeste 0 931.8 -0.7 47
2019-10-04 18:00:00 23.8 8 Sudoeste 19 Sudoeste 0 931.6 -1.7 45
2019-10-04 17:00:00 23.9 7 Sur 19 Sudoeste 0 931.8 -2.3 46
2019-10-04 16:00:00 23.8 6 Sudoeste 15 Sudoeste 0 932.5 -2 51
2019-10-04 15:00:00 22 4 Norte 11 Noroeste 0 933.3 -1.2 54
2019-10-04 14:00:00 21.4 3 Nordeste 13 Este 0 934.1 -0.5 55
2019-10-04 13:00:00 20.6 5 Sur 12 Sudoeste 0 934.5 0 58
2019-10-04 12:00:00 17.6 5 Sur 12 Sur 0 934.5 0.3 65
2019-10-04 11:00:00 14.8 7 Sur 12 Sur 0 934.6 0.7 73
2019-10-04 10:00:00 12.7 5 Sur 10 Sudoeste 0 934.5 0.6 74
2019-10-04 09:00:00 10.2 3 Sur 10 Sur 0 934.2 0.3 81
2019-10-04 08:00:00 9.8 2 Sudoeste 8 Sur 0 933.9 0 77
2019-10-04 07:00:00 10.9 5 Sur 10 Sur 0 933.9 -0.1 75
2019-10-04 06:00:00 11.2 2 Sur 11 Sur 0 933.9 -0.5 72
2019-10-04 05:00:00 11.9 3 Sudeste 13 Sur 0 933.9 -0.7 69
2019-10-04 04:00:00 13.2 8 Sur 13 Sur 0 934 -0.7 65
2019-10-04 03:00:00 14.9 8 Sudoeste 12 Sur 0 934.4 -0.3 64
2019-10-04 02:00:00 16.4 3 Sudoeste 13 Nordeste 0 934.6 0.1 68
2019-10-04 01:00:00 18 9 Noroeste 20 Norte 0 934.7 0.6 63
2019-10-04 00:00:00 18.2 5 Noroeste 22 Oeste 0 934.7 0.9 50
2019-10-03 23:00:00 19.4 9 Sudoeste 15 Sudoeste 0 934.5 0.9 37
2019-10-03 22:00:00 18.2 3 Noroeste 6 Sudoeste 0 934.1 0.6 41
2019-10-03 21:00:00 20.2 4 Sudoeste 9 Sudoeste 0 933.8 0.1 38
2019-10-03 20:00:00 22 5 Sudoeste 11 Sudoeste 0 933.6 -0.5 32
2019-10-03 19:00:00 23.2 4 Noroeste 14 Oeste 0 933.5 -0.8 26
2019-10-03 18:00:00 25.1 6 Oeste 16 Oeste 0 933.7 -1 26
2019-10-03 17:00:00 25.1 7 Oeste 18 Oeste 0 934.1 -1.2 26
2019-10-03 16:00:00 24.6 8 Oeste 23 Oeste 0 934.3 -1.6 29
2019-10-03 15:00:00 22.8 9 Oeste 22 Sudoeste 0 934.7 -1.4 36
2019-10-03 14:00:00 21.4 7 Oeste 16 Sudoeste 0 935.3 -1.2 40
2019-10-03 13:00:00 17.7 5 Sudoeste 13 Sur 0 935.9 -0.1 51
2019-10-03 12:00:00 14.8 7 Sur 11 Sudoeste 0 936.1 0.5 61
2019-10-03 11:00:00 12.1 4 Sur 12 Sur 0 936.5 1.1 70
2019-10-03 10:00:00 11.2 4 Sudeste 8 Sudeste 0 936 0.9 75
2019-10-03 09:00:00 8.9 0 Calma 4 Noroeste 0 935.6 0.7 88
2019-10-03 08:00:00 8.9 0 Calma 4 Norte 0 935.4 0.4 88
2019-10-03 07:00:00 9.2 2 Norte 5 Noroeste 0 935.1 -0.2 86
2019-10-03 06:00:00 9.5 3 Norte 6 Noroeste 0 934.9 -0.7 84
2019-10-03 05:00:00 10 4 Noroeste 8 Noroeste 0 935 -0.8 81
2019-10-03 04:00:00 10.6 4 Oeste 5 Noroeste 0 935.3 -0.9 78
2019-10-03 03:00:00 11.4 3 Noroeste 7 Noroeste 0 935.6 -0.6 74
2019-10-03 02:00:00 12.3 3 Nordeste 14 Este 0 935.8 -0.5 71
2019-10-03 01:00:00 13.3 5 Este 16 Este 0 936.2 0.6 65
2019-10-03 00:00:00 13.8 3 Este 8 Nordeste 0 936.2 0.9 62
2019-10-02 23:00:00 14.4 2 Norte 6 Este 0 936.3 1.3 55
2019-10-02 22:00:00 15.9 3 Noroeste 6 Oeste 0 935.6 1 48
2019-10-02 21:00:00 17.1 5 Oeste 6 Noroeste 0 935.3 1 47
2019-10-02 20:00:00 18.8 2 Norte 8 Este 0 935 0.6 42
2019-10-02 19:00:00 20.1 4 Norte 11 Norte 0 934.6 -0.1 37
2019-10-02 18:00:00 21.1 6 Noroeste 15 Noroeste 0 934.3 -0.6 33
2019-10-02 17:00:00 21.5 4 Norte 17 Noroeste 0 934.4 -0.7 33
2019-10-02 16:00:00 21.1 6 Nordeste 18 Noroeste 0 934.7 -0.6 35
2019-10-02 15:00:00 20.5 3 Este 15 Norte 0 934.9 -0.6 36
2019-10-02 14:00:00 19.3 4 Nordeste 16 Noroeste 0 935.1 -0.5 41
2019-10-02 13:00:00 17.6 4 Este 13 Norte 0 935.3 0.4 48
2019-10-02 12:00:00 15.9 4 Sur 11 Sudeste 0 935.5 1.3 56
2019-10-02 11:00:00 13.6 4 Sudoeste 12 Sur 0 935.6 1.5 64
2019-10-02 10:00:00 11.6 6 Sudoeste 10 Sudoeste 0 934.9 1.2 70
2019-10-02 09:00:00 9.9 3 Oeste 14 Sudoeste 0 934.2 0.8 79
2019-10-02 08:00:00 9.5 9 Sur 13 Sur 0 934.1 1 84
2019-10-02 07:00:00 10 3 Oeste 15 Sudoeste 0 933.7 0.6 80
2019-10-02 06:00:00 10.9 6 Sudoeste 13 Sur 0 933.4 0.3 79
2019-10-02 05:00:00 11.6 4 Sudoeste 18 Noroeste 0 933.1 0.3 75
2019-10-02 04:00:00 12.4 7 Noroeste 19 Oeste 0 933.1 0.3 71
2019-10-02 03:00:00 12.8 6 Oeste 20 Oeste 0 933.1 0.3 70
2019-10-02 02:00:00 14.1 5 Oeste 19 Oeste 0 932.8 0.4 64
2019-10-02 01:00:00 14.6 9 Oeste 20 Oeste 0 932.8 1 62
2019-10-02 00:00:00 15.3 6 Oeste 17 Oeste 0 932.8 2.1 60
2019-10-01 23:00:00 16.4 8 Oeste 21 Oeste 0 932.4 2 53
2019-10-01 22:00:00 18 9 Oeste 27 Noroeste 0 931.8 1.8 45
2019-10-01 21:00:00 19.6 11 Oeste 27 Oeste 0 930.7 0.5 41
2019-10-01 20:00:00 21.4 14 Oeste 30 Oeste 0 930.4 0.2 36
2019-10-01 19:00:00 22.9 14 Oeste 32 Oeste 0 930 -0.3 36
2019-10-01 18:00:00 24 15 Oeste 32 Oeste 0 930.2 -0.6 36
2019-10-01 17:00:00 24.2 14 Oeste 32 Oeste 0 930.2 -1.2 37
2019-10-01 16:00:00 23.9 10 Oeste 29 Oeste 0 930.3 -1.3 42
2019-10-01 15:00:00 22.6 9 Oeste 22 Oeste 0 930.8 -1.6 45
2019-10-01 14:00:00 22.3 11 Oeste 25 Oeste 0 931.4 -0.6 48
2019-10-01 13:00:00 20.4 8 Oeste 23 Oeste 0 931.6 0.3 56
2019-10-01 12:00:00 18.1 10 Sudoeste 19 Sudoeste 0 932.4 1.6 66
2019-10-01 11:00:00 17.1 10 Oeste 24 Oeste 0 932 1.9 71
2019-10-01 10:00:00 15.6 10 Oeste 25 Oeste 0 931.3 1.4 79
2019-10-01 09:00:00 13.5 4 Sudoeste 13 Sur 0 930.8 0.8 80
2019-10-01 08:00:00 13.5 8 Sudoeste 13 Sur 0 930.1 0.5 72
2019-10-01 07:00:00 13.7 5 Sur 17 Sudoeste 0 929.9 0 65
2019-10-01 06:00:00 13.8 4 Sudoeste 10 Sudoeste 0 930 -0.7 61
2019-10-01 05:00:00 15.2 4 Sur 16 Sur 0 929.6 -1.3 52
2019-10-01 04:00:00 15.6 3 Sur 6 Sur 0 929.9 -1.2 53
2019-10-01 03:00:00 16.2 4 Sur 7 Sudeste 0 930.7 -0.3 57
2019-10-01 02:00:00 17.3 2 Sur 10 Sur 0 930.9 0.1 56
2019-10-01 01:00:00 17.9 2 Oeste 5 Este 0 931.1 0.5 58
2019-10-01 00:00:00 19.7 0 Calma 18 Sudoeste 0 931 0.5 51
2019-09-30 23:00:00 20.2 3 Oeste 8 Noroeste 0 930.8 0.4 48
2019-09-30 22:00:00 21.2 4 Oeste 6 Oeste 0 930.6 0.1 45
2019-09-30 21:00:00 22.6 5 Oeste 8 Oeste 0 930.5 -0.3 43
2019-09-30 20:00:00 24.8 3 Sur 9 Sudoeste 0 930.4 -1 40
2019-09-30 19:00:00 26.5 5 Sudoeste 15 Sudoeste 0 930.5 -1.6 33
2019-09-30 18:00:00 27.8 8 Sudoeste 24 Sudoeste 0 930.8 -1.9 31
2019-09-30 17:00:00 28 7 Sudoeste 17 Oeste 0 931.4 -2.2 31
2019-09-30 16:00:00 27 7 Sur 15 Oeste 0 932.1 -2 35
2019-09-30 15:00:00 26 7 Sudoeste 14 Sudoeste 0 932.7 -2 38
2019-09-30 14:00:00 24.3 7 Sudoeste 14 Oeste 0 933.6 -1.2 46
2019-09-30 13:00:00 22.4 5 Sur 10 Sudoeste 0 934.1 -0.5 53
2019-09-30 12:00:00 20.5 4 Sur 8 Sur 0 934.7 0.5 54
2019-09-30 11:00:00 18.2 3 Este 6 Nordeste 0 934.8 0.5 56
2019-09-30 10:00:00 14.7 3 Norte 5 Norte 0 934.6 0.4 66
2019-09-30 09:00:00 12.4 0 Calma 8 Sudoeste 0 934.2 0 73
2019-09-30 08:00:00 12.2 2 Sur 8 Sur 0 934.3 -0.1 73
2019-09-30 07:00:00 12.5 0 Calma 5 Sudeste 0 934.2 -0.3 75
2019-09-30 06:00:00 13.3 0 Calma 7 Sudeste 0 934.2 -0.6 74
2019-09-30 05:00:00 14.9 3 Sudoeste 11 Sudoeste 0 934.4 -0.3 74
2019-09-30 04:00:00 16.7 7 Sur 12 Sudoeste 0 934.5 -0.3 77
2019-09-30 03:00:00 16.7 4 Sur 8 Norte 0 934.8 0.2 78
2019-09-30 02:00:00 17.4 3 Norte 17 Noroeste 0 934.7 0.3 75
2019-09-30 01:00:00 18.3 6 Noroeste 14 Noroeste 0 934.8 0.7 71
2019-09-30 00:00:00 18.5 6 Noroeste 17 Noroeste 0 934.6 1.1 59
2019-09-29 23:00:00 19.3 6 Oeste 15 Oeste 0 934.4 1.5 49
2019-09-29 22:00:00 20.5 6 Noroeste 15 Noroeste 0 934.1 1.3 41
2019-09-29 21:00:00 22.8 8 Oeste 18 Oeste 0 933.5 0.6 32
2019-09-29 20:00:00 24.9 10 Oeste 21 Sudoeste 0 932.9 -0.4 28
2019-09-29 19:00:00 26.5 11 Oeste 28 Sudoeste 0 932.8 -0.9 25
2019-09-29 18:00:00 28.1 10 Oeste 26 Sudoeste 0 932.9 -1.5 22
2019-09-29 17:00:00 27.9 13 Oeste 26 Sudoeste 0 933.3 -1.7 23
2019-09-29 16:00:00 27.4 10 Sudoeste 26 Sudoeste 0 933.7 -1.5 24
2019-09-29 15:00:00 26.6 12 Oeste 23 Oeste 0 934.4 -1.1 20
2019-09-29 14:00:00 24.5 8 Sur 17 Sur 0 935 -0.3 23
2019-09-29 13:00:00 21.6 7 Sur 15 Sudoeste 0 935.2 0.5 38
2019-09-29 12:00:00 18.9 5 Sur 9 Sur 0 935.5 1.3 46
2019-09-29 11:00:00 16.3 4 Sudeste 9 Sudeste 0 935.3 1.2 51
2019-09-29 10:00:00 13.4 3 Este 15 Sur 0 934.7 0.9 57
2019-09-29 09:00:00 11 3 Sudeste 9 Sur 0 934.2 0.3 67
2019-09-29 08:00:00 10.8 4 Sur 8 Sudeste 0 934.1 0.2 65
2019-09-29 07:00:00 11.7 4 Sur 12 Sur 0 933.8 -0.5 62
2019-09-29 06:00:00 11.5 4 Sur 10 Sur 0 933.9 -0.5 65
2019-09-29 05:00:00 12.5 3 Sur 7 Sudeste 0 933.9 -0.5 63
2019-09-29 04:00:00 12.8 2 Noroeste 6 Noroeste 0 934.3 -0.3 59
2019-09-29 03:00:00 13.9 4 Sudeste 8 Sur 0 934.4 -0.1 53
2019-09-29 02:00:00 14.5 5 Sur 10 Sudeste 0 934.4 -0.1 50
2019-09-29 01:00:00 15.1 0 Calma 6 Oeste 0 934.6 0.2 48
2019-09-29 00:00:00 16.5 3 Sudeste 7 Oeste 0 934.5 0.4 43
2019-09-28 23:00:00 17.3 4 Norte 6 Oeste 0 934.5 0.5 38
2019-09-28 22:00:00 19 5 Oeste 7 Oeste 0 934.4 0.4 30
2019-09-28 21:00:00 20.3 0 Calma 10 Oeste 0 934.1 -0.1 31
2019-09-28 20:00:00 23.1 4 Sudoeste 12 Sudoeste 0 934 -0.5 29
2019-09-28 19:00:00 25.1 6 Oeste 15 Sudoeste 0 934 -1 21
2019-09-28 18:00:00 26.3 5 Sudoeste 12 Sudoeste 0 934.2 -1.5 22
2019-09-28 17:00:00 26.2 6 Sudoeste 14 Sudoeste 0 934.5 -2 25
2019-09-28 16:00:00 24.8 4 Nordeste 9 Norte 0 935 -2 35
2019-09-28 15:00:00 23.5 4 Noroeste 10 Noroeste 0 935.7 -1.7 41
2019-09-28 14:00:00 21.7 4 Nordeste 10 Sudoeste 0 936.5 -1 49
2019-09-28 13:00:00 19.9 4 Noroeste 8 Noroeste 0 937 0.1 55
2019-09-28 12:00:00 17.9 3 Este 8 Sudeste 0 937.4 0.8 58
2019-09-28 11:00:00 14.8 3 Nordeste 6 Nordeste 0 937.5 1.2 71
2019-09-28 10:00:00 12.5 2 Nordeste 6 Norte 0 936.9 0.8 80
2019-09-28 09:00:00 10.3 3 Norte 5 Norte 0 936.6 0.4 88
2019-09-28 08:00:00 10.1 2 Noroeste 5 Noroeste 0 936.3 0.1 88
2019-09-28 07:00:00 11 3 Norte 6 Sur 0 936.1 -0.3 84
2019-09-28 06:00:00 11.9 4 Sudeste 7 Sudeste 0 936.2 -0.3 83
2019-09-28 05:00:00 12.4 5 Noroeste 6 Oeste 0 936.2 -0.4 79
2019-09-28 04:00:00 13.4 2 Oeste 7 Sur 0 936.4 -0.2 75
2019-09-28 03:00:00 13.9 4 Noroeste 6 Noroeste 0 936.5 0 72
2019-09-28 02:00:00 14.8 4 Noroeste 12 Noroeste 0 936.6 0.7 67
2019-09-28 01:00:00 15.5 6 Noroeste 13 Noroeste 0 936.6 1.1 65
2019-09-28 00:00:00 16 5 Oeste 10 Noroeste 0 936.5 1.7 66
2019-09-27 23:00:00 17.3 5 Noroeste 15 Noroeste 0 935.9 1.5 64
2019-09-27 22:00:00 18.8 7 Noroeste 21 Noroeste 0 935.5 1.3 58
2019-09-27 21:00:00 20.8 10 Oeste 23 Oeste 0 934.8 0.6 50
2019-09-27 20:00:00 22.9 10 Oeste 24 Oeste 0 934.4 0.1 42
2019-09-27 19:00:00 24.3 10 Oeste 27 Oeste 0 934.2 -0.4 37
2019-09-27 18:00:00 25.4 12 Oeste 26 Oeste 0 934.2 -1.1 33
2019-09-27 17:00:00 25.6 10 Oeste 30 Noroeste 0 934.3 -1.6 27
2019-09-27 16:00:00 25.2 10 Oeste 24 Oeste 0 934.6 -1.7 24
2019-09-27 15:00:00 24 10 Oeste 21 Oeste 0 935.3 -1.2 26
2019-09-27 14:00:00 21.6 6 Sudoeste 17 Sudeste 0 935.9 -0.9 39
2019-09-27 13:00:00 20.1 4 Sudoeste 15 Sur 0 936.3 -0.1 42
2019-09-27 12:00:00 18.1 5 Sudeste 11 Sudeste 0 936.5 0.5 56
2019-09-27 11:00:00 15.2 4 Sudoeste 11 Sur 0 936.8 1 61
2019-09-27 10:00:00 13.4 2 Sudeste 11 Sudoeste 0 936.4 0.9 62
2019-09-27 09:00:00 10.9 8 Sur 15 Sur 0 936 0.6 68
2019-09-27 08:00:00 9.5 4 Noroeste 11 Sur 0 935.8 0.3 76
2019-09-27 07:00:00 10.5 4 Sur 9 Sudeste 0 935.5 0.2 70
2019-09-27 06:00:00 10.6 2 Sudeste 6 Sudeste 0 935.4 -0.2 70
2019-09-27 05:00:00 11.8 3 Norte 8 Sur 0 935.5 0 67
2019-09-27 04:00:00 12.5 0 Calma 5 Norte 0 935.3 0 63
2019-09-27 03:00:00 13.7 3 Norte 5 Sudeste 0 935.6 0.4 60
2019-09-27 02:00:00 15.1 3 Sur 9 Sur 0 935.5 0.5 55
2019-09-27 01:00:00 16.8 4 Sur 15 Oeste 0 935.3 0.5 47
2019-09-27 00:00:00 17.9 8 Oeste 16 Oeste 0 935.2 1.2 44
2019-09-26 23:00:00 17.9 8 Oeste 15 Oeste 0 935 1.2 39
2019-09-26 22:00:00 19.1 5 Oeste 13 Oeste 0 934.8 1.2 35
2019-09-26 21:00:00 20.9 6 Oeste 10 Oeste 0 934 0.4 32
2019-09-26 20:00:00 23.5 5 Oeste 19 Oeste 0 933.8 -0.2 25
2019-09-26 19:00:00 25 7 Oeste 24 Oeste 0 933.6 -0.9 21
2019-09-26 18:00:00 26.4 12 Oeste 23 Oeste 0 933.6 -0.9 21
2019-09-26 17:00:00 26.1 9 Oeste 21 Sudoeste 0 934 -1.1 26
2019-09-26 16:00:00 25.5 11 Oeste 21 Sudoeste 0 934.5 -0.8 29
2019-09-26 15:00:00 23.8 6 Sur 19 Sur 0 934.5 -1.3 41
2019-09-26 14:00:00 22.2 9 Sudoeste 19 Sudoeste 0 935.1 -0.7 45
2019-09-26 13:00:00 19.8 6 Sudoeste 16 Sudoeste 0 935.3 -0.3 58
2019-09-26 12:00:00 17.6 8 Sudoeste 15 Sur 0 935.8 0.6 64
2019-09-26 11:00:00 15.1 6 Sur 13 Sur 0 935.8 0.9 74
2019-09-26 10:00:00 13.5 5 Sur 9 Sur 0 935.6 1 79
2019-09-26 09:00:00 11.4 5 Sudeste 9 Sudeste 0 935.2 0.6 86
2019-09-26 08:00:00 10.9 0 Calma 5 Sudeste 0 934.9 0.2 88
2019-09-26 07:00:00 11.3 2 Oeste 10 Sur 0 934.6 0 86
2019-09-26 06:00:00 12 0 Calma 9 Sudoeste 0 934.6 -0.3 82
2019-09-26 05:00:00 12.7 4 Sudoeste 12 Sur 0 934.7 -0.1 78
2019-09-26 04:00:00 12.9 4 Sudoeste 7 Sudeste 0 934.6 -0.2 77
2019-09-26 03:00:00 13.7 2 Sudoeste 8 Sudoeste 0 934.9 0.3 74
2019-09-26 02:00:00 15.1 5 Sur 9 Sur 0 934.8 0.4 66
2019-09-26 01:00:00 15.4 6 Sur 8 Sudoeste 0 934.8 0.7 64
2019-09-26 00:00:00 16 4 Sur 8 Sudeste 0 934.6 0.7 61
2019-09-25 23:00:00 17.4 6 Sur 13 Sudoeste 0 934.4 0.8 54
2019-09-25 22:00:00 18.3 5 Sur 12 Sur 0 934.1 0.5 51
2019-09-25 21:00:00 18.6 3 Sudoeste 9 Sur 0 933.9 0.1 50
2019-09-25 20:00:00 19.9 4 Sudoeste 14 Sudoeste 0 933.6 -0.5 45
2019-09-25 19:00:00 20.7 8 Sudoeste 18 Sudoeste 0 933.6 -0.6 42
2019-09-25 18:00:00 21.4 10 Sudoeste 20 Sudoeste 0 933.8 -0.8 41
2019-09-25 17:00:00 21.3 8 Oeste 21 Sudoeste 0 934.1 -1 40
2019-09-25 16:00:00 21.4 9 Oeste 22 Oeste 0 934.2 -1.3 41
2019-09-25 15:00:00 20.6 6 Oeste 23 Oeste 0 934.6 -1.3 43
2019-09-25 14:00:00 19.3 5 Noroeste 21 Noroeste 0 935.1 -0.8 48
2019-09-25 13:00:00 17.5 7 Noroeste 21 Norte 0 935.5 0.3 54
2019-09-25 12:00:00 16.2 7 Noroeste 22 Norte 0 935.9 1.2 60
2019-09-25 11:00:00 14.6 7 Noroeste 15 Oeste 0 935.9 1.5 66
2019-09-25 10:00:00 12 6 Sudoeste 12 Sudoeste 0 935.2 1.1 81
2019-09-25 09:00:00 10.5 3 Sur 11 Noroeste 0 934.7 0.6 86
2019-09-25 08:00:00 10.4 8 Oeste 17 Oeste 0 934.4 0.4 85
2019-09-25 07:00:00 10.8 8 Sudoeste 15 Sur 0 934.1 0.1 84
2019-09-25 06:00:00 11.1 5 Sudoeste 13 Sudoeste 0 934.1 -0.3 84
2019-09-25 05:00:00 11.2 6 Oeste 16 Oeste 0 934 0 84
2019-09-25 04:00:00 11.7 6 Oeste 15 Oeste 0 934 -0.2 81
2019-09-25 03:00:00 12.3 6 Oeste 17 Oeste 0 934.4 0.4 77
2019-09-25 02:00:00 13.1 8 Oeste 24 Oeste 0 934 0.1 75
2019-09-25 01:00:00 14.7 9 Oeste 26 Noroeste 0 934.2 1 69
2019-09-25 00:00:00 15.5 13 Oeste 27 Oeste 0 934 1.1 67
2019-09-24 23:00:00 16.4 12 Oeste 26 Oeste 0 933.9 1.5 63
2019-09-24 22:00:00 17.7 13 Oeste 28 Oeste 0 933.2 0.9 61
2019-09-24 21:00:00 19.2 12 Oeste 27 Oeste 0 932.9 0.6 55
2019-09-24 20:00:00 21.2 14 Oeste 31 Oeste 0 932.4 -0.4 54
2019-09-24 19:00:00 22.5 13 Oeste 35 Sudoeste 0 932.3 -1 49
2019-09-24 18:00:00 23.2 17 Oeste 37 Oeste 0 932.3 -1.1 49
2019-09-24 17:00:00 23.1 21 Oeste 37 Oeste 0 932.8 -1.2 52
2019-09-24 16:00:00 21.8 19 Oeste 38 Oeste 0 933.3 -1.2 60
2019-09-24 15:00:00 21.3 18 Oeste 33 Oeste 0 933.4 -1.4 60
2019-09-24 14:00:00 20.5 11 Sudoeste 27 Oeste 0 934 -0.8 64
2019-09-24 13:00:00 18.9 13 Sudoeste 28 Sudoeste 0 934.5 0 68
2019-09-24 12:00:00 16.5 5 Sur 21 Sur 0 934.8 0.4 75
2019-09-24 11:00:00 14.2 9 Sur 18 Sur 0 934.8 0.8 82
2019-09-24 10:00:00 12.4 6 Sur 15 Sur 0 934.5 0.7 88
2019-09-24 09:00:00 11.8 6 Sur 12 Sur 0 934.4 0.4 90
2019-09-24 08:00:00 11.4 6 Sur 13 Sur 0 934 -0.2 89
2019-09-24 07:00:00 11.6 5 Sur 12 Sur 0 933.8 -0.5 87
2019-09-24 06:00:00 12.2 5 Sur 14 Sur 0 934 -0.6 84
2019-09-24 05:00:00 12.9 7 Sur 13 Sur 0 934.2 -0.6 80
2019-09-24 04:00:00 13.3 4 Sur 10 Sur 0 934.3 -0.6 79
2019-09-24 03:00:00 14 6 Sur 13 Sudoeste 0 934.6 -0.6 73
2019-09-24 02:00:00 14.6 5 Sur 10 Sur 0 934.8 -0.4 70
2019-09-24 01:00:00 15.7 5 Sudeste 13 Sur 0 934.9 -0.3 65
2019-09-24 00:00:00 17 7 Sur 13 Sudoeste 0 935.2 0.2 58
2019-09-23 23:00:00 17.9 5 Sur 15 Oeste 0 935.2 0.7 55
2019-09-23 22:00:00 18.5 7 Oeste 15 Oeste 0 935.2 0.7 52
2019-09-23 21:00:00 19.2 6 Sudoeste 9 Sudoeste 0 935 0.3 50
2019-09-23 20:00:00 20.7 4 Sudoeste 20 Oeste 0 934.5 -0.6 45
2019-09-23 19:00:00 21.5 10 Sudoeste 17 Sudoeste 0 934.5 -0.7 41
2019-09-23 18:00:00 22 7 Sudoeste 17 Sur 0 934.7 -0.6 41
2019-09-23 17:00:00 20.9 6 Sudoeste 18 Sudoeste 0 935.1 -0.7 44
2019-09-23 16:00:00 20.5 8 Sudoeste 18 Sudoeste 0 935.2 -1 47
2019-09-23 15:00:00 19.1 11 Sudoeste 20 Oeste 0 935.3 -1.3 54
2019-09-23 14:00:00 18.4 8 Sudoeste 19 Sudoeste 0 935.8 -0.8 58
2019-09-23 13:00:00 16.9 8 Sur 16 Sur 0 936.2 0.1 65
2019-09-23 12:00:00 14.2 7 Sur 12 Sur 0 936.6 0.8 77
2019-09-23 11:00:00 12.2 6 Sudoeste 13 Sur 0 936.6 0.7 84
2019-09-23 10:00:00 11.1 7 Sur 14 Sur 0 936.1 0.9 86
2019-09-23 09:00:00 10 3 Sur 13 Sur 0 935.8 1.3 90
2019-09-23 08:00:00 9.2 3 Sudeste 12 Sur 0 935.9 1.5 90
2019-09-23 07:00:00 9.9 4 Sur 12 Sur 0 935.2 0.9 88
2019-09-23 06:00:00 10.1 5 Sur 9 Sur 0 934.5 0.3 87
2019-09-23 05:00:00 10.4 4 Sur 8 Sur 0 934.4 0.3 84
2019-09-23 04:00:00 11 6 Sudoeste 13 Sur 0 934.3 0.5 81
2019-09-23 03:00:00 12.3 6 Sur 14 Sur 0 934.2 0.5 73
2019-09-23 02:00:00 13.4 4 Oeste 17 Noroeste 0 934.1 1 70
2019-09-23 01:00:00 13.6 3 Oeste 10 Oeste 0 933.8 0.9 67
2019-09-23 00:00:00 14.3 3 Oeste 15 Sudoeste 0 933.7 1.6 62
2019-09-22 23:00:00 15 5 Sudoeste 14 Oeste 0 933.1 1.3 59
2019-09-22 22:00:00 16 7 Oeste 16 Oeste 0 932.9 1.5 52
2019-09-22 21:00:00 16.3 7 Oeste 13 Oeste 0 932.1 1 53
2019-09-22 20:00:00 18 9 Oeste 26 Sudoeste 0 931.8 0.8 49
2019-09-22 19:00:00 19.2 11 Oeste 24 Sudoeste 0 931.4 0.4 44
2019-09-22 18:00:00 19.8 11 Oeste 24 Oeste 0 931.1 0 47
2019-09-22 17:00:00 19.5 9 Oeste 29 Oeste 0 931 -0.3 51
2019-09-22 16:00:00 20.2 13 Oeste 28 Sudoeste 0 931 -0.3 48
2019-09-22 15:00:00 18.8 12 Sudoeste 25 Oeste 0 931.1 -0.1 54
2019-09-22 14:00:00 16.9 8 Oeste 24 Oeste 0 931.3 0.4 67
2019-09-22 13:00:00 15.9 11 Oeste 22 Oeste 0 931.3 0.7 72
2019-09-22 12:00:00 15.6 11 Oeste 24 Sudoeste 0 931.2 1.3 73
2019-09-22 11:00:00 14.3 11 Sudoeste 25 Oeste 0 930.9 1.6 81
2019-09-22 10:00:00 12.8 8 Sudoeste 19 Sudoeste 0 930.6 1.9 90
2019-09-22 09:00:00 11.8 6 Sur 14 Sur 0 929.9 1.9 94
2019-09-22 08:00:00 11.8 5 Sur 14 Sur 0 929.3 1.5 93
2019-09-22 07:00:00 12.3 4 Sudoeste 21 Sudoeste 0 928.7 1.2 91
2019-09-22 06:00:00 12.5 7 Sudoeste 22 Sudoeste 0 928 0.8 93
2019-09-22 05:00:00 12.5 10 Oeste 23 Sudoeste 0 927.8 1.5 90
2019-09-22 04:00:00 12.5 9 Oeste 27 Sudoeste 0.4 927.5 1.5 92
2019-09-22 03:00:00 12.7 11 Oeste 35 Oeste 6 927.2 0.8 93
2019-09-22 02:00:00 15.9 8 Sur 17 Sudoeste 3.6 926.3 -0.3 91
2019-09-22 01:00:00 16.5 3 Sur 13 Sur 0.4 926 -0.6 86
2019-09-22 00:00:00 17 5 Sur 17 Sudeste 0 926.4 0 82
2019-09-21 23:00:00 17.2 6 Sur 16 Sur 0 926.6 0.2 83
2019-09-21 22:00:00 17.3 8 Sur 19 Sur 0 926.6 0.4 83
2019-09-21 21:00:00 17.7 6 Sur 22 Oeste 0.2 926.4 0.1 82
2019-09-21 20:00:00 18.5 8 Sudoeste 33 Oeste 0 926.4 -0.3 77
2019-09-21 19:00:00 19.9 15 Sudoeste 41 Sudoeste 0 926.2 -1.1 67
2019-09-21 18:00:00 19.1 3 Sur 19 Sur 0 926.3 -1.3 75
2019-09-21 17:00:00 18.7 8 Sur 18 Sur 0 926.7 -1.2 77
2019-09-21 16:00:00 17.5 7 Sur 18 Sudoeste 0 927.3 -0.9 85
2019-09-21 15:00:00 18.7 10 Sur 21 Sur 0 927.6 -0.8 71
2019-09-21 14:00:00 18.2 9 Sudoeste 20 Sudoeste 0 927.9 -0.3 75
2019-09-21 13:00:00 18 8 Sudoeste 21 Sur 0 928.2 0.1 71
2019-09-21 12:00:00 18.4 6 Sudoeste 19 Sudoeste 0 928.4 0.5 66
2019-09-21 11:00:00 18.1 6 Sur 15 Sur 0 928.2 0.3 69
2019-09-21 10:00:00 16.8 7 Sur 15 Sur 0 928.1 0.1 75
2019-09-21 09:00:00 15.9 6 Sudeste 15 Sur 0 927.9 -0.2 79
2019-09-21 08:00:00 16.1 4 Sudeste 12 Sudoeste 0 927.9 -0.2 80
2019-09-21 07:00:00 16.5 4 Sur 12 Sur 0 928 -0.3 76
2019-09-21 06:00:00 16.7 5 Sur 12 Sur 0 928.1 -0.2 81
2019-09-21 05:00:00 16.6 5 Sur 11 Sur 0 928.1 -0.3 83
2019-09-21 04:00:00 16.7 3 Sur 10 Sur 0 928.3 -0.7 83
2019-09-21 03:00:00 16.8 5 Sur 13 Sur 0 928.3 -0.7 80
2019-09-21 02:00:00 17.1 4 Sur 14 Sudoeste 0 928.4 -0.6 80
2019-09-21 01:00:00 16.8 5 Sur 12 Sudeste 0 929 0.3 81
2019-09-21 00:00:00 16.8 5 Sur 19 Sur 0.4 929 0.6 82
2019-09-20 23:00:00 17.5 7 Sudeste 24 Sur 1.8 929 1.1 77
2019-09-20 22:00:00 19.4 8 Sur 15 Oeste 0 928.7 0.8 65
2019-09-20 21:00:00 20.2 10 Sudoeste 23 Sudoeste 0 928.4 0.8 61
2019-09-20 20:00:00 18.9 7 Oeste 53 Oeste 2.6 927.9 -0.1 76
2019-09-20 19:00:00 24.7 14 Sudeste 41 Sur 0 927.9 -0.8 40
2019-09-20 18:00:00 26.3 10 Sur 29 Sur 0 927.6 -1.6 36
2019-09-20 17:00:00 26.7 10 Sur 34 Sur 0 928 -1.9 37
2019-09-20 16:00:00 26.6 10 Sur 36 Sur 0 928.7 -1.6 36
2019-09-20 15:00:00 26.9 10 Sur 35 Sur 0 929.2 -1.5 36
2019-09-20 14:00:00 25.9 11 Sudoeste 28 Sudoeste 0 929.9 -1.1 41
2019-09-20 13:00:00 25.4 10 Sur 23 Sur 0 930.3 -0.7 41
2019-09-20 12:00:00 23.2 7 Sur 18 Sudeste 0 930.7 -0.1 54
2019-09-20 11:00:00 19.4 6 Este 10 Este 0 931 0.4 70
2019-09-20 10:00:00 17 3 Nordeste 6 Este 0 931 0.5 79
2019-09-20 09:00:00 15.2 3 Norte 5 Norte 0 930.8 0.3 86
2019-09-20 08:00:00 14.7 2 Norte 4 Noroeste 0 930.6 -0.2 88
2019-09-20 07:00:00 14.7 0 Calma 5 Oeste 0 930.5 -0.6 88
2019-09-20 06:00:00 15 0 Calma 5 Noroeste 0 930.5 -1 87
2019-09-20 05:00:00 15.6 2 Noroeste 6 Norte 0 930.8 -0.7 84
2019-09-20 04:00:00 16.3 2 Noroeste 5 Norte 0 931.1 -0.8 80
2019-09-20 03:00:00 17.1 3 Nordeste 8 Nordeste 0 931.5 -0.5 74
2019-09-20 02:00:00 17.8 2 Norte 7 Noroeste 0 931.5 -0.6 68
2019-09-20 01:00:00 18.3 4 Nordeste 10 Este 0 931.9 0.1 64
2019-09-20 00:00:00 18.5 2 Noroeste 8 Noroeste 0 932 0.7 62